PAMR/MRI METAR and TAF weather

Enter ICAO airport designator
Station Type Date Time Source
PAMR METAR 2021/10/20 05:53 UTC NOAA

PAMR 200553Z 34004KT 10SM FEW049 BKN055 OVC075 05/02 A2908 RMK AO2 RAB32E48 SLP850 P0000 60000 T00500022 10056 20033 53012


Station Type Date Time Source
PAMR Decoded METAR 2021/10/20 05:53 UTC NOAA

ANCHORAGE MERRILL FIELD, AK, United States (PAMR) 61-13N 149-51W
Oct 20, 2021 - 01:53 AM EDT / 2021.10.20 0553 UTC
Wind: from the NNW (340 degrees) at 5 MPH (4 KT):0
Visibility: 10 mile(s):0
Sky conditions: overcast
Precipitation last hour: A trace
Temperature: 41.0 F (5.0 C)
Dew Point: 36.0 F (2.2 C)
Relative Humidity: 82%
Pressure (altimeter): 29.08 in. Hg (984 hPa)
Pressure tendency: 0.04 inches (1.2 hPa) higher than three hours ago
ob: PAMR 200553Z 34004KT 10SM FEW049 BKN055 OVC075 05/02 A2908 RMK AO2 RAB32E48 SLP850 P0000 60000 T00500022 10056 20033 53012
cycle: 6

Station Type Date Time Source
PAMR TAF UTC NOAA

Error!

Example: see airport list